sensor_id;sensor_type;location;lat;lon;timestamp;pressure;altitude;pressure_sealevel;temperature
12126;BMP180;6126;57.908;16.490;2023-04-28T00:02:00;101294.00;;;3.43
12126;BMP180;6126;57.908;16.490;2023-04-28T00:04:26;101285.34;;;3.42
12126;BMP180;6126;57.908;16.490;2023-04-28T00:06:52;101289.69;;;3.42
12126;BMP180;6126;57.908;16.490;2023-04-28T00:09:18;101303.47;;;3.41
12126;BMP180;6126;57.908;16.490;2023-04-28T00:11:47;101296.56;;;3.40
12126;BMP180;6126;57.908;16.490;2023-04-28T00:14:13;101300.03;;;3.39
12126;BMP180;6126;57.908;16.490;2023-04-28T00:16:39;101311.25;;;3.38
12126;BMP180;6126;57.908;16.490;2023-04-28T00:19:04;101306.91;;;3.37
12126;BMP180;6126;57.908;16.490;2023-04-28T00:21:30;101305.22;;;3.35
12126;BMP180;6126;57.908;16.490;2023-04-28T00:23:56;101307.81;;;3.33
12126;BMP180;6126;57.908;16.490;2023-04-28T00:26:23;101309.56;;;3.33
12126;BMP180;6126;57.908;16.490;2023-04-28T00:28:49;101312.13;;;3.31
12126;BMP180;6126;57.908;16.490;2023-04-28T00:31:15;101312.13;;;3.31
12126;BMP180;6126;57.908;16.490;2023-04-28T00:33:42;101317.28;;;3.31
12126;BMP180;6126;57.908;16.490;2023-04-28T00:36:09;101317.28;;;3.30
12126;BMP180;6126;57.908;16.490;2023-04-28T00:38:36;101323.34;;;3.29
12126;BMP180;6126;57.908;16.490;2023-04-28T00:41:02;101320.75;;;3.27
12126;BMP180;6126;57.908;16.490;2023-04-28T00:43:29;101325.91;;;3.27
12126;BMP180;6126;57.908;16.490;2023-04-28T00:45:55;101323.31;;;3.27
12126;BMP180;6126;57.908;16.490;2023-04-28T00:48:21;101329.38;;;3.26
12126;BMP180;6126;57.908;16.490;2023-04-28T00:50:48;101331.09;;;3.24
12126;BMP180;6126;57.908;16.490;2023-04-28T00:53:14;101333.66;;;3.24
12126;BMP180;6126;57.908;16.490;2023-04-28T00:55:40;101335.44;;;3.22
12126;BMP180;6126;57.908;16.490;2023-04-28T00:58:07;101334.56;;;3.20
12126;BMP180;6126;57.908;16.490;2023-04-28T01:00:34;101336.28;;;3.18
12126;BMP180;6126;57.908;16.490;2023-04-28T01:03:00;101336.31;;;3.15
12126;BMP180;6126;57.908;16.490;2023-04-28T01:05:27;101332.00;;;3.13
12126;BMP180;6126;57.908;16.490;2023-04-28T01:07:54;101334.59;;;3.11
12126;BMP180;6126;57.908;16.490;2023-04-28T01:10:20;101343.22;;;3.10
12126;BMP180;6126;57.908;16.490;2023-04-28T01:12:46;101341.47;;;3.11
12126;BMP180;6126;57.908;16.490;2023-04-28T01:15:17;101344.09;;;3.09
12126;BMP180;6126;57.908;16.490;2023-04-28T01:17:47;101335.47;;;3.07
12126;BMP180;6126;57.908;16.490;2023-04-28T01:20:14;101338.06;;;3.07
12126;BMP180;6126;57.908;16.490;2023-04-28T01:22:40;101344.94;;;3.06
12126;BMP180;6126;57.908;16.490;2023-04-28T01:25:06;101335.47;;;3.06
12126;BMP180;6126;57.908;16.490;2023-04-28T01:27:32;101345.81;;;3.05
12126;BMP180;6126;57.908;16.490;2023-04-28T01:29:58;101346.66;;;3.04
12126;BMP180;6126;57.908;16.490;2023-04-28T01:32:24;101349.28;;;3.02
12126;BMP180;6126;57.908;16.490;2023-04-28T01:34:50;101350.13;;;3.01
12126;BMP180;6126;57.908;16.490;2023-04-28T01:37:16;101349.25;;;3.01
12126;BMP180;6126;57.908;16.490;2023-04-28T01:39:42;101356.16;;;3.00
12126;BMP180;6126;57.908;16.490;2023-04-28T01:42:08;101361.34;;;3.02
12126;BMP180;6126;57.908;16.490;2023-04-28T01:44:34;101356.16;;;3.02
12126;BMP180;6126;57.908;16.490;2023-04-28T01:46:59;101351.84;;;3.02
12126;BMP180;6126;57.908;16.490;2023-04-28T01:49:25;101356.16;;;3.02
12126;BMP180;6126;57.908;16.490;2023-04-28T01:51:51;101349.25;;;3.01
12126;BMP180;6126;57.908;16.490;2023-04-28T01:54:17;101361.31;;;2.99
12126;BMP180;6126;57.908;16.490;2023-04-28T01:56:43;101355.28;;;2.98
12126;BMP180;6126;57.908;16.490;2023-04-28T01:59:09;101346.69;;;2.98
12126;BMP180;6126;57.908;16.490;2023-04-28T02:01:35;101347.56;;;2.97
12126;BMP180;6126;57.908;16.490;2023-04-28T02:04:01;101363.91;;;2.97
12126;BMP180;6126;57.908;16.490;2023-04-28T02:06:27;101359.63;;;2.96
12126;BMP180;6126;57.908;16.490;2023-04-28T02:08:53;101354.44;;;2.93
12126;BMP180;6126;57.908;16.490;2023-04-28T02:11:19;101354.47;;;2.92
12126;BMP180;6126;57.908;16.490;2023-04-28T02:13:44;101359.63;;;2.90
12126;BMP180;6126;57.908;16.490;2023-04-28T02:16:10;101363.94;;;2.90
12126;BMP180;6126;57.908;16.490;2023-04-28T02:18:36;101357.91;;;2.88
12126;BMP180;6126;57.908;16.490;2023-04-28T02:21:12;101364.81;;;2.87
12126;BMP180;6126;57.908;16.490;2023-04-28T02:23:39;101363.06;;;2.88
12126;BMP180;6126;57.908;16.490;2023-04-28T02:26:05;101358.78;;;2.87
12126;BMP180;6126;57.908;16.490;2023-04-28T02:28:31;101367.38;;;2.84
12126;BMP180;6126;57.908;16.490;2023-04-28T02:31:05;101371.69;;;2.84
12126;BMP180;6126;57.908;16.490;2023-04-28T02:33:32;101361.38;;;2.82
12126;BMP180;6126;57.908;16.490;2023-04-28T02:36:02;101377.69;;;2.83
12126;BMP180;6126;57.908;16.490;2023-04-28T02:38:29;101373.41;;;2.82
12126;BMP180;6126;57.908;16.490;2023-04-28T02:40:59;101378.56;;;2.82
12126;BMP180;6126;57.908;16.490;2023-04-28T02:43:27;101374.28;;;2.81
12126;BMP180;6126;57.908;16.490;2023-04-28T02:45:53;101365.69;;;2.79
12126;BMP180;6126;57.908;16.490;2023-04-28T02:48:19;101372.56;;;2.77
12126;BMP180;6126;57.908;16.490;2023-04-28T02:50:45;101372.56;;;2.77
12126;BMP180;6126;57.908;16.490;2023-04-28T02:53:11;101370.84;;;2.77
12126;BMP180;6126;57.908;16.490;2023-04-28T02:55:37;101382.88;;;2.77
12126;BMP180;6126;57.908;16.490;2023-04-28T02:58:03;101382.03;;;2.75
12126;BMP180;6126;57.908;16.490;2023-04-28T03:00:29;101388.06;;;2.74
12126;BMP180;6126;57.908;16.490;2023-04-28T03:02:55;101394.09;;;2.73
12126;BMP180;6126;57.908;16.490;2023-04-28T03:05:21;101392.38;;;2.71
12126;BMP180;6126;57.908;16.490;2023-04-28T03:07:47;101385.47;;;2.70
12126;BMP180;6126;57.908;16.490;2023-04-28T03:10:13;101392.38;;;2.69
12126;BMP180;6126;57.908;16.490;2023-04-28T03:12:39;101388.06;;;2.68
12126;BMP180;6126;57.908;16.490;2023-04-28T03:15:05;101398.41;;;2.68
12126;BMP180;6126;57.908;16.490;2023-04-28T03:17:34;101386.34;;;2.67
12126;BMP180;6126;57.908;16.490;2023-04-28T03:20:02;101397.53;;;2.66
12126;BMP180;6126;57.908;16.490;2023-04-28T03:22:28;101393.25;;;2.65
12126;BMP180;6126;57.908;16.490;2023-04-28T03:24:53;101394.97;;;2.63
12126;BMP180;6126;57.908;16.490;2023-04-28T03:27:19;101404.44;;;2.60
12126;BMP180;6126;57.908;16.490;2023-04-28T03:29:46;101407.00;;;2.54
12126;BMP180;6126;57.908;16.490;2023-04-28T03:32:11;101412.19;;;2.49
12126;BMP180;6126;57.908;16.490;2023-04-28T03:34:38;101413.00;;;2.44
12126;BMP180;6126;57.908;16.490;2023-04-28T03:37:04;101406.16;;;2.40
12126;BMP180;6126;57.908;16.490;2023-04-28T03:39:30;101406.13;;;2.39
12126;BMP180;6126;57.908;16.490;2023-04-28T03:41:56;101398.41;;;2.40
12126;BMP180;6126;57.908;16.490;2023-04-28T03:44:22;101405.28;;;2.41
12126;BMP180;6126;57.908;16.490;2023-04-28T03:46:49;101408.72;;;2.45
12126;BMP180;6126;57.908;16.490;2023-04-28T03:49:15;101414.75;;;2.48
12126;BMP180;6126;57.908;16.490;2023-04-28T03:51:41;101409.59;;;2.49
12126;BMP180;6126;57.908;16.490;2023-04-28T03:54:07;101413.88;;;2.50
12126;BMP180;6126;57.908;16.490;2023-04-28T03:56:33;101420.75;;;2.54
12126;BMP180;6126;57.908;16.490;2023-04-28T03:58:59;101416.47;;;2.55
12126;BMP180;6126;57.908;16.490;2023-04-28T04:01:25;101424.19;;;2.56
12126;BMP180;6126;57.908;16.490;2023-04-28T04:03:51;101417.31;;;2.57
12126;BMP180;6126;57.908;16.490;2023-04-28T04:06:17;101419.03;;;2.59
12126;BMP180;6126;57.908;16.490;2023-04-28T04:08:43;101419.03;;;2.64
12126;BMP180;6126;57.908;16.490;2023-04-28T04:11:09;101413.88;;;2.68
12126;BMP180;6126;57.908;16.490;2023-04-28T04:13:35;101416.44;;;2.74
12126;BMP180;6126;57.908;16.490;2023-04-28T04:16:01;101419.00;;;2.80
12126;BMP180;6126;57.908;16.490;2023-04-28T04:18:27;101413.84;;;2.83
12126;BMP180;6126;57.908;16.490;2023-04-28T04:20:53;101419.03;;;2.86
12126;BMP180;6126;57.908;16.490;2023-04-28T04:23:21;101418.13;;;2.90
12126;BMP180;6126;57.908;16.490;2023-04-28T04:25:47;101421.56;;;2.95
12126;BMP180;6126;57.908;16.490;2023-04-28T04:28:13;101427.59;;;2.97
12126;BMP180;6126;57.908;16.490;2023-04-28T04:30:39;101428.44;;;2.99
12126;BMP180;6126;57.908;16.490;2023-04-28T04:33:05;101418.13;;;3.02
12126;BMP180;6126;57.908;16.490;2023-04-28T04:35:31;101424.16;;;3.07
12126;BMP180;6126;57.908;16.490;2023-04-28T04:37:57;101426.69;;;3.15
12126;BMP180;6126;57.908;16.490;2023-04-28T04:40:24;101426.66;;;3.21
12126;BMP180;6126;57.908;16.490;2023-04-28T04:42:50;101422.34;;;3.29
12126;BMP180;6126;57.908;16.490;2023-04-28T04:45:16;101420.56;;;3.40
12126;BMP180;6126;57.908;16.490;2023-04-28T04:47:42;101425.75;;;3.43
12126;BMP180;6126;57.908;16.490;2023-04-28T04:50:10;101430.91;;;3.49
12126;BMP180;6126;57.908;16.490;2023-04-28T04:52:36;101435.16;;;3.56
12126;BMP180;6126;57.908;16.490;2023-04-28T04:55:03;101434.28;;;3.63
12126;BMP180;6126;57.908;16.490;2023-04-28T04:57:29;101435.09;;;3.72
12126;BMP180;6126;57.908;16.490;2023-04-28T04:59:55;101435.91;;;3.81
12126;BMP180;6126;57.908;16.490;2023-04-28T05:02:21;101441.91;;;3.91
12126;BMP180;6126;57.908;16.490;2023-04-28T05:04:47;101437.53;;;4.03
12126;BMP180;6126;57.908;16.490;2023-04-28T05:07:13;101432.31;;;4.10
12126;BMP180;6126;57.908;16.490;2023-04-28T05:09:39;101428.81;;;4.19
12126;BMP180;6126;57.908;16.490;2023-04-28T05:12:05;101433.03;;;4.27
12126;BMP180;6126;57.908;16.490;2023-04-28T05:14:31;101420.91;;;4.33
12126;BMP180;6126;57.908;16.490;2023-04-28T05:16:57;101422.59;;;4.42
12126;BMP180;6126;57.908;16.490;2023-04-28T05:19:23;101426.81;;;4.53
12126;BMP180;6126;57.908;16.490;2023-04-28T05:21:49;101416.38;;;4.60
12126;BMP180;6126;57.908;16.490;2023-04-28T05:24:17;101423.22;;;4.69
12126;BMP180;6126;57.908;16.490;2023-04-28T05:26:46;101418.75;;;4.83
12126;BMP180;6126;57.908;16.490;2023-04-28T05:29:12;101421.34;;;4.83
12126;BMP180;6126;57.908;16.490;2023-04-28T05:31:38;101425.59;;;4.90
12126;BMP180;6126;57.908;16.490;2023-04-28T05:34:04;101435.09;;;4.93
12126;BMP180;6126;57.908;16.490;2023-04-28T05:36:30;101435.00;;;4.99
12126;BMP180;6126;57.908;16.490;2023-04-28T05:38:56;101445.31;;;5.05
12126;BMP180;6126;57.908;16.490;2023-04-28T05:41:22;101437.47;;;5.13
12126;BMP180;6126;57.908;16.490;2023-04-28T05:43:48;101430.50;;;5.18
12126;BMP180;6126;57.908;16.490;2023-04-28T05:46:16;101421.81;;;5.23
12126;BMP180;6126;57.908;16.490;2023-04-28T05:48:42;101430.31;;;5.34
12126;BMP180;6126;57.908;16.490;2023-04-28T05:51:08;101430.19;;;5.43
12126;BMP180;6126;57.908;16.490;2023-04-28T05:53:34;101426.69;;;5.50
12126;BMP180;6126;57.908;16.490;2023-04-28T05:56:00;101431.69;;;5.63
12126;BMP180;6126;57.908;16.490;2023-04-28T05:58:26;101422.97;;;5.71
12126;BMP180;6126;57.908;16.490;2023-04-28T06:00:52;101428.91;;;5.79
12126;BMP180;6126;57.908;16.490;2023-04-28T06:03:19;101429.69;;;5.87
12126;BMP180;6126;57.908;16.490;2023-04-28T06:05:45;101434.72;;;5.97
12126;BMP180;6126;57.908;16.490;2023-04-28T06:08:11;101432.66;;;6.20
12126;BMP180;6126;57.908;16.490;2023-04-28T06:10:37;101423.06;;;6.26
12126;BMP180;6126;57.908;16.490;2023-04-28T06:13:03;101422.91;;;6.35
12126;BMP180;6126;57.908;16.490;2023-04-28T06:15:31;101424.66;;;6.35
12126;BMP180;6126;57.908;16.490;2023-04-28T06:17:58;101419.41;;;6.39
12126;BMP180;6126;57.908;16.490;2023-04-28T06:20:24;101425.34;;;6.47
12126;BMP180;6126;57.908;16.490;2023-04-28T06:22:50;101415.63;;;6.56
12126;BMP180;6126;57.908;16.490;2023-04-28T06:25:16;101422.41;;;6.65
12126;BMP180;6126;57.908;16.490;2023-04-28T06:27:42;101417.16;;;6.71
12126;BMP180;6126;57.908;16.490;2023-04-28T06:30:08;101420.53;;;6.76
12126;BMP180;6126;57.908;16.490;2023-04-28T06:32:34;101423.91;;;6.80
12126;BMP180;6126;57.908;16.490;2023-04-28T06:35:00;101411.66;;;6.85
12126;BMP180;6126;57.908;16.490;2023-04-28T06:37:26;101415.88;;;6.92
12126;BMP180;6126;57.908;16.490;2023-04-28T06:39:52;101418.38;;;6.98
12126;BMP180;6126;57.908;16.490;2023-04-28T06:42:18;101425.25;;;7.01
12126;BMP180;6126;57.908;16.490;2023-04-28T06:44:45;101419.13;;;7.03
12126;BMP180;6126;57.908;16.490;2023-04-28T06:47:11;101411.34;;;7.03
12126;BMP180;6126;57.908;16.490;2023-04-28T06:49:37;101427.78;;;7.05
12126;BMP180;6126;57.908;16.490;2023-04-28T06:52:03;101408.69;;;7.06
12126;BMP180;6126;57.908;16.490;2023-04-28T06:54:28;101414.66;;;7.11
12126;BMP180;6126;57.908;16.490;2023-04-28T06:56:54;101408.47;;;7.16
12126;BMP180;6126;57.908;16.490;2023-04-28T06:59:20;101407.56;;;7.20
12126;BMP180;6126;57.908;16.490;2023-04-28T07:01:46;101411.72;;;7.30
12126;BMP180;6126;57.908;16.490;2023-04-28T07:04:12;101407.22;;;7.37
12126;BMP180;6126;57.908;16.490;2023-04-28T07:06:38;101400.19;;;7.41
12126;BMP180;6126;57.908;16.490;2023-04-28T07:09:04;101403.50;;;7.48
12126;BMP180;6126;57.908;16.490;2023-04-28T07:11:30;101403.44;;;7.52
12126;BMP180;6126;57.908;16.490;2023-04-28T07:13:57;101401.59;;;7.59
12126;BMP180;6126;57.908;16.490;2023-04-28T07:16:24;101405.75;;;7.66
12126;BMP180;6126;57.908;16.490;2023-04-28T07:18:51;101402.16;;;7.72
12126;BMP180;6126;57.908;16.490;2023-04-28T07:21:17;101389.81;;;7.82
12126;BMP180;6126;57.908;16.490;2023-04-28T07:23:43;101389.59;;;7.91
12126;BMP180;6126;57.908;16.490;2023-04-28T07:26:08;101391.13;;;7.99
12126;BMP180;6126;57.908;16.490;2023-04-28T07:28:34;101389.16;;;8.11
12126;BMP180;6126;57.908;16.490;2023-04-28T07:31:00;101387.22;;;8.19
12126;BMP180;6126;57.908;16.490;2023-04-28T07:33:26;101383.63;;;8.23
12126;BMP180;6126;57.908;16.490;2023-04-28T07:35:52;101384.41;;;8.28
12126;BMP180;6126;57.908;16.490;2023-04-28T07:38:18;101382.47;;;8.36
12126;BMP180;6126;57.908;16.490;2023-04-28T07:40:46;101384.03;;;8.43
12126;BMP180;6126;57.908;16.490;2023-04-28T07:43:12;101378.69;;;8.49
12126;BMP180;6126;57.908;16.490;2023-04-28T07:45:39;101383.81;;;8.52
12126;BMP180;6126;57.908;16.490;2023-04-28T07:48:05;101375.03;;;8.56
12126;BMP180;6126;57.908;16.490;2023-04-28T07:50:32;101374.78;;;8.64
12126;BMP180;6126;57.908;16.490;2023-04-28T07:52:58;101386.78;;;8.71
12126;BMP180;6126;57.908;16.490;2023-04-28T07:55:24;101373.66;;;8.74
12126;BMP180;6126;57.908;16.490;2023-04-28T07:57:50;101375.34;;;8.77
12126;BMP180;6126;57.908;16.490;2023-04-28T08:00:16;101373.38;;;8.86
12126;BMP180;6126;57.908;16.490;2023-04-28T08:02:43;101373.09;;;8.96
12126;BMP180;6126;57.908;16.490;2023-04-28T08:05:09;101370.19;;;9.07
12126;BMP180;6126;57.908;16.490;2023-04-28T08:07:36;101377.69;;;9.19
12126;BMP180;6126;57.908;16.490;2023-04-28T08:10:03;101375.59;;;9.31
12126;BMP180;6126;57.908;16.490;2023-04-28T08:12:29;101370.91;;;9.43
12126;BMP180;6126;57.908;16.490;2023-04-28T08:14:56;101355.72;;;9.55
12126;BMP180;6126;57.908;16.490;2023-04-28T08:17:22;101362.38;;;9.65
12126;BMP180;6126;57.908;16.490;2023-04-28T08:19:48;101372.50;;;9.76
12126;BMP180;6126;57.908;16.490;2023-04-28T08:22:15;101366.22;;;9.83
12126;BMP180;6126;57.908;16.490;2023-04-28T08:24:40;101366.13;;;9.85
12126;BMP180;6126;57.908;16.490;2023-04-28T08:27:07;101360.75;;;9.91
12126;BMP180;6126;57.908;16.490;2023-04-28T08:29:33;101351.84;;;9.98
12126;BMP180;6126;57.908;16.490;2023-04-28T08:31:59;101361.13;;;10.07
12126;BMP180;6126;57.908;16.490;2023-04-28T08:34:29;101344.31;;;10.15
12126;BMP180;6126;57.908;16.490;2023-04-28T08:36:55;101340.47;;;10.26
12126;BMP180;6126;57.908;16.490;2023-04-28T08:39:21;101350.69;;;10.34
12126;BMP180;6126;57.908;16.490;2023-04-28T08:41:48;101346.13;;;10.39
12126;BMP180;6126;57.908;16.490;2023-04-28T08:44:14;101350.38;;;10.43
12126;BMP180;6126;57.908;16.490;2023-04-28T08:46:44;101341.63;;;10.44
12126;BMP180;6126;57.908;16.490;2023-04-28T08:49:15;101336.84;;;10.56
12126;BMP180;6126;57.908;16.490;2023-04-28T08:51:55;101333.66;;;10.72
12126;BMP180;6126;57.908;16.490;2023-04-28T08:54:32;101333.47;;;10.78
12126;BMP180;6126;57.908;16.490;2023-04-28T08:57:01;101326.63;;;10.74
12126;BMP180;6126;57.908;16.490;2023-04-28T08:59:30;101330.03;;;10.76
12126;BMP180;6126;57.908;16.490;2023-04-28T09:01:56;101330.56;;;10.85
12126;BMP180;6126;57.908;16.490;2023-04-28T09:04:22;101330.25;;;10.94
12126;BMP180;6126;57.908;16.490;2023-04-28T09:06:48;101322.03;;;11.05
12126;BMP180;6126;57.908;16.490;2023-04-28T09:09:27;101316.69;;;11.07
12126;BMP180;6126;57.908;16.490;2023-04-28T09:12:02;101315.28;;;11.22
12126;BMP180;6126;57.908;16.490;2023-04-28T09:14:34;101317.63;;;11.29
12126;BMP180;6126;57.908;16.490;2023-04-28T09:17:02;101306.25;;;11.30
12126;BMP180;6126;57.908;16.490;2023-04-28T09:19:37;101312.91;;;11.38
12126;BMP180;6126;57.908;16.490;2023-04-28T09:22:04;101306.25;;;11.53
12126;BMP180;6126;57.908;16.490;2023-04-28T09:24:38;101317.28;;;11.61
12126;BMP180;6126;57.908;16.490;2023-04-28T09:27:07;101302.28;;;11.66
12126;BMP180;6126;57.908;16.490;2023-04-28T09:29:47;101298.63;;;11.70
12126;BMP180;6126;57.908;16.490;2023-04-28T09:32:18;101300.88;;;11.78
12126;BMP180;6126;57.908;16.490;2023-04-28T09:34:53;101303.88;;;11.91
12126;BMP180;6126;57.908;16.490;2023-04-28T09:37:25;101298.66;;;11.91
12126;BMP180;6126;57.908;16.490;2023-04-28T09:39:53;101288.69;;;12.00
12126;BMP180;6126;57.908;16.490;2023-04-28T09:42:42;101298.41;;;11.97
12126;BMP180;6126;57.908;16.490;2023-04-28T09:45:14;101290.28;;;11.60
12126;BMP180;6126;57.908;16.490;2023-04-28T09:47:45;101308.44;;;11.65
12126;BMP180;6126;57.908;16.490;2023-04-28T09:50:14;101298.34;;;11.77
12126;BMP180;6126;57.908;16.490;2023-04-28T09:52:44;101290.84;;;11.68
12126;BMP180;6126;57.908;16.490;2023-04-28T09:55:11;101289.41;;;11.82
12126;BMP180;6126;57.908;16.490;2023-04-28T09:57:38;101295.47;;;12.04
12126;BMP180;6126;57.908;16.490;2023-04-28T10:00:06;101302.06;;;12.14
12126;BMP180;6126;57.908;16.490;2023-04-28T10:02:36;101301.88;;;11.97
12126;BMP180;6126;57.908;16.490;2023-04-28T10:05:02;101298.22;;;12.01
12126;BMP180;6126;57.908;16.490;2023-04-28T10:07:28;101287.13;;;11.95
12126;BMP180;6126;57.908;16.490;2023-04-28T10:10:00;101283.72;;;11.71
12126;BMP180;6126;57.908;16.490;2023-04-28T10:12:26;101291.88;;;11.41
12126;BMP180;6126;57.908;16.490;2023-04-28T10:14:53;101295.44;;;11.39
12126;BMP180;6126;57.908;16.490;2023-04-28T10:17:21;101280.03;;;11.54
12126;BMP180;6126;57.908;16.490;2023-04-28T10:19:49;101277.13;;;11.62
12126;BMP180;6126;57.908;16.490;2023-04-28T10:23:06;101284.19;;;11.60
12126;BMP180;6126;57.908;16.490;2023-04-28T10:25:36;101274.97;;;11.50
12126;BMP180;6126;57.908;16.490;2023-04-28T10:28:08;101279.06;;;11.34
12126;BMP180;6126;57.908;16.490;2023-04-28T10:30:34;101274.41;;;11.19
12126;BMP180;6126;57.908;16.490;2023-04-28T10:38:11;101271.81;;;11.63
12126;BMP180;6126;57.908;16.490;2023-04-28T10:56:23;101277.44;;;11.75
12126;BMP180;6126;57.908;16.490;2023-04-28T10:58:54;101277.28;;;11.80
12126;BMP180;6126;57.908;16.490;2023-04-28T11:06:24;101268.22;;;12.29
12126;BMP180;6126;57.908;16.490;2023-04-28T11:08:56;101256.78;;;12.51
12126;BMP180;6126;57.908;16.490;2023-04-28T11:11:26;101265.75;;;12.65
12126;BMP180;6126;57.908;16.490;2023-04-28T11:16:54;101276.53;;;12.60
12126;BMP180;6126;57.908;16.490;2023-04-28T11:19:23;101279.50;;;12.31
12126;BMP180;6126;57.908;16.490;2023-04-28T11:21:52;101276.47;;;11.99
12126;BMP180;6126;57.908;16.490;2023-04-28T11:24:18;101271.88;;;11.84
12126;BMP180;6126;57.908;16.490;2023-04-28T11:26:44;101268.97;;;12.11
12126;BMP180;6126;57.908;16.490;2023-04-28T11:29:11;101260.63;;;12.43
12126;BMP180;6126;57.908;16.490;2023-04-28T11:31:40;101263.34;;;12.61
12126;BMP180;6126;57.908;16.490;2023-04-28T11:34:19;101257.72;;;12.90
12126;BMP180;6126;57.908;16.490;2023-04-28T11:36:46;101252.66;;;12.85
12126;BMP180;6126;57.908;16.490;2023-04-28T11:39:13;101260.34;;;12.90
12126;BMP180;6126;57.908;16.490;2023-04-28T11:41:43;101251.66;;;13.07
12126;BMP180;6126;57.908;16.490;2023-04-28T11:44:18;101252.47;;;13.27
12126;BMP180;6126;57.908;16.490;2023-04-28T11:46:53;101247.84;;;13.51
12126;BMP180;6126;57.908;16.490;2023-04-28T11:49:30;101246.56;;;13.59
12126;BMP180;6126;57.908;16.490;2023-04-28T11:52:04;101246.75;;;13.73
12126;BMP180;6126;57.908;16.490;2023-04-28T11:54:31;101242.25;;;13.93
12126;BMP180;6126;57.908;16.490;2023-04-28T11:56:58;101238.41;;;14.00
12126;BMP180;6126;57.908;16.490;2023-04-28T11:59:28;101278.56;;;14.03
12126;BMP180;6126;57.908;16.490;2023-04-28T12:01:57;101266.69;;;14.13
12126;BMP180;6126;57.908;16.490;2023-04-28T12:04:38;101275.56;;;14.11
12126;BMP180;6126;57.908;16.490;2023-04-28T12:07:17;101278.50;;;14.21
12126;BMP180;6126;57.908;16.490;2023-04-28T12:12:36;101289.91;;;13.86
12126;BMP180;6126;57.908;16.490;2023-04-28T12:15:05;101273.16;;;13.88
12126;BMP180;6126;57.908;16.490;2023-04-28T12:17:41;101283.66;;;14.06
12126;BMP180;6126;57.908;16.490;2023-04-28T12:20:11;101272.00;;;13.93
12126;BMP180;6126;57.908;16.490;2023-04-28T12:22:49;101269.59;;;14.07
12126;BMP180;6126;57.908;16.490;2023-04-28T12:25:17;101269.72;;;14.39
12126;BMP180;6126;57.908;16.490;2023-04-28T12:28:06;101258.44;;;14.71
12126;BMP180;6126;57.908;16.490;2023-04-28T12:30:36;101256.03;;;14.66
12126;BMP180;6126;57.908;16.490;2023-04-28T12:33:03;101271.81;;;14.49
12126;BMP180;6126;57.908;16.490;2023-04-28T12:35:29;101269.44;;;14.10
12126;BMP180;6126;57.908;16.490;2023-04-28T12:37:56;101275.44;;;13.77
12126;BMP180;6126;57.908;16.490;2023-04-28T12:40:23;101272.38;;;13.50
12126;BMP180;6126;57.908;16.490;2023-04-28T12:42:49;101285.59;;;13.30
12126;BMP180;6126;57.908;16.490;2023-04-28T12:45:15;101280.34;;;13.30
12126;BMP180;6126;57.908;16.490;2023-04-28T12:47:42;101259.56;;;13.44
12126;BMP180;6126;57.908;16.490;2023-04-28T12:50:08;101265.94;;;13.75
12126;BMP180;6126;57.908;16.490;2023-04-28T12:52:34;101250.19;;;14.10
12126;BMP180;6126;57.908;16.490;2023-04-28T12:55:03;101253.63;;;14.45
12126;BMP180;6126;57.908;16.490;2023-04-28T12:57:29;101236.53;;;14.70
12126;BMP180;6126;57.908;16.490;2023-04-28T12:59:55;101235.03;;;14.81
12126;BMP180;6126;57.908;16.490;2023-04-28T13:02:22;101232.44;;;14.65
12126;BMP180;6126;57.908;16.490;2023-04-28T13:04:48;101241.88;;;14.35
12126;BMP180;6126;57.908;16.490;2023-04-28T13:07:15;101242.97;;;14.31
12126;BMP180;6126;57.908;16.490;2023-04-28T13:09:41;101241.09;;;14.33
12126;BMP180;6126;57.908;16.490;2023-04-28T13:12:09;101231.66;;;14.46
12126;BMP180;6126;57.908;16.490;2023-04-28T13:14:36;101229.31;;;14.57
12126;BMP180;6126;57.908;16.490;2023-04-28T13:17:02;101231.22;;;14.55
12126;BMP180;6126;57.908;16.490;2023-04-28T13:19:29;101235.06;;;14.48
12126;BMP180;6126;57.908;16.490;2023-04-28T13:21:56;101228.03;;;14.32
12126;BMP180;6126;57.908;16.490;2023-04-28T13:24:22;101229.56;;;14.36
12126;BMP180;6126;57.908;16.490;2023-04-28T13:26:48;101235.09;;;14.31
12126;BMP180;6126;57.908;16.490;2023-04-28T13:29:14;101230.97;;;14.26
12126;BMP180;6126;57.908;16.490;2023-04-28T13:31:40;101218.59;;;13.93
12126;BMP180;6126;57.908;16.490;2023-04-28T13:34:06;101238.88;;;13.73
12126;BMP180;6126;57.908;16.490;2023-04-28T13:36:33;101221.09;;;13.43
12126;BMP180;6126;57.908;16.490;2023-04-28T13:39:00;101217.69;;;13.23
12126;BMP180;6126;57.908;16.490;2023-04-28T13:41:26;101213.78;;;13.31
12126;BMP180;6126;57.908;16.490;2023-04-28T13:43:52;101221.16;;;13.59
12126;BMP180;6126;57.908;16.490;2023-04-28T13:46:19;101225.91;;;13.86
12126;BMP180;6126;57.908;16.490;2023-04-28T13:48:45;101216.53;;;13.99
12126;BMP180;6126;57.908;16.490;2023-04-28T13:51:11;101216.81;;;14.12
12126;BMP180;6126;57.908;16.490;2023-04-28T13:53:37;101203.75;;;14.27
12126;BMP180;6126;57.908;16.490;2023-04-28T13:56:06;101205.69;;;14.40
12126;BMP180;6126;57.908;16.490;2023-04-28T13:58:33;101197.31;;;14.49
12126;BMP180;6126;57.908;16.490;2023-04-28T14:00:59;101197.63;;;14.60
12126;BMP180;6126;57.908;16.490;2023-04-28T14:03:26;101189.19;;;14.70
12126;BMP180;6126;57.908;16.490;2023-04-28T14:05:55;101192.44;;;14.90
12126;BMP180;6126;57.908;16.490;2023-04-28T14:08:23;101193.75;;;14.99
12126;BMP180;6126;57.908;16.490;2023-04-28T14:10:50;101205.28;;;14.96
12126;BMP180;6126;57.908;16.490;2023-04-28T14:13:17;101199.00;;;14.99
12126;BMP180;6126;57.908;16.490;2023-04-28T14:15:44;101213.00;;;14.99
12126;BMP180;6126;57.908;16.490;2023-04-28T14:18:11;101215.25;;;15.07
12126;BMP180;6126;57.908;16.490;2023-04-28T14:20:38;101219.38;;;14.95
12126;BMP180;6126;57.908;16.490;2023-04-28T14:23:03;101219.56;;;14.76
12126;BMP180;6126;57.908;16.490;2023-04-28T14:25:29;101204.25;;;14.67
12126;BMP180;6126;57.908;16.490;2023-04-28T14:27:55;101222.09;;;14.77
12126;BMP180;6126;57.908;16.490;2023-04-28T14:30:22;101213.66;;;14.87
12126;BMP180;6126;57.908;16.490;2023-04-28T14:32:48;101222.69;;;14.99
12126;BMP180;6126;57.908;16.490;2023-04-28T14:35:15;101205.25;;;15.13
12126;BMP180;6126;57.908;16.490;2023-04-28T14:37:42;101202.88;;;15.24